sensor_id;sensor_type;location;lat;lon;timestamp;P1;durP1;ratioP1;P2;durP2;ratioP2
31906;SDS011;18455;50.858;13.662;2023-02-21T00:02:25;7.50;;;5.40;;
31906;SDS011;18455;50.858;13.662;2023-02-21T00:07:44;8.63;;;5.83;;
31906;SDS011;18455;50.858;13.662;2023-02-21T00:13:03;7.63;;;5.27;;
31906;SDS011;18455;50.858;13.662;2023-02-21T00:18:21;9.43;;;5.87;;
31906;SDS011;18455;50.858;13.662;2023-02-21T00:23:40;11.73;;;6.73;;
31906;SDS011;18455;50.858;13.662;2023-02-21T00:28:59;8.20;;;5.53;;
31906;SDS011;18455;50.858;13.662;2023-02-21T00:34:18;8.53;;;5.13;;
31906;SDS011;18455;50.858;13.662;2023-02-21T00:39:37;9.23;;;4.17;;
31906;SDS011;18455;50.858;13.662;2023-02-21T00:44:55;11.00;;;5.20;;
31906;SDS011;18455;50.858;13.662;2023-02-21T00:50:39;11.13;;;5.90;;
31906;SDS011;18455;50.858;13.662;2023-02-21T00:55:58;11.87;;;5.20;;
31906;SDS011;18455;50.858;13.662;2023-02-21T01:01:17;9.10;;;5.60;;
31906;SDS011;18455;50.858;13.662;2023-02-21T01:06:36;6.73;;;4.13;;
31906;SDS011;18455;50.858;13.662;2023-02-21T01:11:55;7.17;;;4.70;;
31906;SDS011;18455;50.858;13.662;2023-02-21T01:17:14;6.97;;;4.60;;
31906;SDS011;18455;50.858;13.662;2023-02-21T01:22:33;6.20;;;4.90;;
31906;SDS011;18455;50.858;13.662;2023-02-21T01:27:54;6.10;;;4.93;;
31906;SDS011;18455;50.858;13.662;2023-02-21T01:33:13;4.73;;;3.43;;
31906;SDS011;18455;50.858;13.662;2023-02-21T01:38:33;6.73;;;4.20;;
31906;SDS011;18455;50.858;13.662;2023-02-21T01:49:48;6.70;;;4.57;;
31906;SDS011;18455;50.858;13.662;2023-02-21T01:55:07;4.37;;;2.77;;
31906;SDS011;18455;50.858;13.662;2023-02-21T02:00:27;6.33;;;4.27;;
31906;SDS011;18455;50.858;13.662;2023-02-21T02:05:56;4.30;;;3.53;;
31906;SDS011;18455;50.858;13.662;2023-02-21T02:17:09;6.50;;;3.67;;
31906;SDS011;18455;50.858;13.662;2023-02-21T02:22:37;4.27;;;3.43;;
31906;SDS011;18455;50.858;13.662;2023-02-21T02:27:44;4.63;;;3.30;;
31906;SDS011;18455;50.858;13.662;2023-02-21T02:32:56;4.17;;;3.00;;
31906;SDS011;18455;50.858;13.662;2023-02-21T02:38:29;3.90;;;3.50;;
31906;SDS011;18455;50.858;13.662;2023-02-21T02:43:54;4.80;;;3.00;;
31906;SDS011;18455;50.858;13.662;2023-02-21T02:49:02;3.93;;;3.03;;
31906;SDS011;18455;50.858;13.662;2023-02-21T02:54:07;5.40;;;3.67;;
31906;SDS011;18455;50.858;13.662;2023-02-21T02:59:22;4.30;;;3.37;;
31906;SDS011;18455;50.858;13.662;2023-02-21T03:20:18;4.73;;;4.20;;
31906;SDS011;18455;50.858;13.662;2023-02-21T03:25:20;5.87;;;3.40;;
31906;SDS011;18455;50.858;13.662;2023-02-21T03:30:22;5.97;;;3.90;;
31906;SDS011;18455;50.858;13.662;2023-02-21T03:35:27;4.87;;;3.90;;
31906;SDS011;18455;50.858;13.662;2023-02-21T03:40:30;6.50;;;4.30;;
31906;SDS011;18455;50.858;13.662;2023-02-21T03:45:33;6.90;;;3.90;;
31906;SDS011;18455;50.858;13.662;2023-02-21T03:50:42;5.10;;;4.30;;
31906;SDS011;18455;50.858;13.662;2023-02-21T03:55:42;6.23;;;4.17;;
31906;SDS011;18455;50.858;13.662;2023-02-21T04:00:49;3.57;;;3.13;;
31906;SDS011;18455;50.858;13.662;2023-02-21T04:05:50;6.77;;;2.90;;
31906;SDS011;18455;50.858;13.662;2023-02-21T04:10:51;5.70;;;4.10;;
31906;SDS011;18455;50.858;13.662;2023-02-21T04:15:52;7.60;;;4.50;;
31906;SDS011;18455;50.858;13.662;2023-02-21T04:20:54;5.73;;;4.13;;
31906;SDS011;18455;50.858;13.662;2023-02-21T04:25:55;7.50;;;3.97;;
31906;SDS011;18455;50.858;13.662;2023-02-21T04:31:02;6.37;;;4.67;;
31906;SDS011;18455;50.858;13.662;2023-02-21T04:36:03;5.30;;;3.80;;
31906;SDS011;18455;50.858;13.662;2023-02-21T04:41:10;6.10;;;4.57;;
31906;SDS011;18455;50.858;13.662;2023-02-21T04:46:14;5.97;;;4.23;;
31906;SDS011;18455;50.858;13.662;2023-02-21T04:51:17;5.87;;;3.93;;
31906;SDS011;18455;50.858;13.662;2023-02-21T04:56:19;6.10;;;4.50;;
31906;SDS011;18455;50.858;13.662;2023-02-21T05:01:20;6.60;;;4.40;;
31906;SDS011;18455;50.858;13.662;2023-02-21T05:06:21;7.87;;;4.43;;
31906;SDS011;18455;50.858;13.662;2023-02-21T05:11:23;7.17;;;4.90;;
31906;SDS011;18455;50.858;13.662;2023-02-21T05:16:23;6.67;;;4.80;;
31906;SDS011;18455;50.858;13.662;2023-02-21T05:21:24;8.30;;;5.33;;
31906;SDS011;18455;50.858;13.662;2023-02-21T05:26:26;17.90;;;9.07;;
31906;SDS011;18455;50.858;13.662;2023-02-21T05:31:29;6.10;;;4.53;;
31906;SDS011;18455;50.858;13.662;2023-02-21T05:36:30;10.90;;;5.93;;
31906;SDS011;18455;50.858;13.662;2023-02-21T05:41:30;9.37;;;5.57;;
31906;SDS011;18455;50.858;13.662;2023-02-21T05:46:32;9.47;;;6.00;;
31906;SDS011;18455;50.858;13.662;2023-02-21T05:51:37;9.10;;;6.07;;
31906;SDS011;18455;50.858;13.662;2023-02-21T05:56:39;8.30;;;5.83;;
31906;SDS011;18455;50.858;13.662;2023-02-21T06:01:40;11.77;;;6.23;;
31906;SDS011;18455;50.858;13.662;2023-02-21T06:06:41;10.50;;;6.23;;
31906;SDS011;18455;50.858;13.662;2023-02-21T06:11:41;8.67;;;6.23;;
31906;SDS011;18455;50.858;13.662;2023-02-21T06:16:42;8.53;;;5.77;;
31906;SDS011;18455;50.858;13.662;2023-02-21T06:21:43;9.80;;;7.30;;
31906;SDS011;18455;50.858;13.662;2023-02-21T06:26:43;9.77;;;6.50;;
31906;SDS011;18455;50.858;13.662;2023-02-21T06:31:44;12.13;;;6.27;;
31906;SDS011;18455;50.858;13.662;2023-02-21T06:36:44;11.57;;;6.70;;
31906;SDS011;18455;50.858;13.662;2023-02-21T06:41:44;13.17;;;7.77;;
31906;SDS011;18455;50.858;13.662;2023-02-21T06:46:46;13.73;;;7.70;;
31906;SDS011;18455;50.858;13.662;2023-02-21T06:51:49;9.87;;;6.43;;
31906;SDS011;18455;50.858;13.662;2023-02-21T06:56:49;12.03;;;7.57;;
31906;SDS011;18455;50.858;13.662;2023-02-21T07:01:50;12.93;;;7.27;;
31906;SDS011;18455;50.858;13.662;2023-02-21T07:06:50;15.13;;;7.10;;
31906;SDS011;18455;50.858;13.662;2023-02-21T07:11:51;12.17;;;7.67;;
31906;SDS011;18455;50.858;13.662;2023-02-21T07:16:51;12.10;;;6.90;;
31906;SDS011;18455;50.858;13.662;2023-02-21T07:21:51;13.73;;;7.17;;
31906;SDS011;18455;50.858;13.662;2023-02-21T07:26:52;11.67;;;8.03;;
31906;SDS011;18455;50.858;13.662;2023-02-21T07:31:52;14.83;;;7.80;;
31906;SDS011;18455;50.858;13.662;2023-02-21T07:36:52;12.50;;;7.37;;
31906;SDS011;18455;50.858;13.662;2023-02-21T07:41:53;13.17;;;7.47;;
31906;SDS011;18455;50.858;13.662;2023-02-21T07:46:57;11.50;;;7.73;;
31906;SDS011;18455;50.858;13.662;2023-02-21T07:51:57;12.23;;;7.70;;
31906;SDS011;18455;50.858;13.662;2023-02-21T07:56:57;11.20;;;7.73;;
31906;SDS011;18455;50.858;13.662;2023-02-21T08:01:58;13.53;;;8.60;;
31906;SDS011;18455;50.858;13.662;2023-02-21T08:06:59;13.40;;;8.03;;
31906;SDS011;18455;50.858;13.662;2023-02-21T08:12:00;11.30;;;7.47;;
31906;SDS011;18455;50.858;13.662;2023-02-21T08:17:00;14.20;;;8.63;;
31906;SDS011;18455;50.858;13.662;2023-02-21T08:22:00;14.07;;;8.50;;
31906;SDS011;18455;50.858;13.662;2023-02-21T08:27:01;15.60;;;9.23;;
31906;SDS011;18455;50.858;13.662;2023-02-21T08:32:01;12.00;;;8.27;;
31906;SDS011;18455;50.858;13.662;2023-02-21T08:37:01;13.33;;;9.17;;
31906;SDS011;18455;50.858;13.662;2023-02-21T08:42:05;16.07;;;8.70;;
31906;SDS011;18455;50.858;13.662;2023-02-21T08:47:06;14.97;;;9.20;;
31906;SDS011;18455;50.858;13.662;2023-02-21T08:52:07;15.27;;;8.63;;
31906;SDS011;18455;50.858;13.662;2023-02-21T08:57:08;10.90;;;7.33;;
31906;SDS011;18455;50.858;13.662;2023-02-21T09:02:15;10.63;;;6.97;;
31906;SDS011;18455;50.858;13.662;2023-02-21T09:07:20;10.00;;;7.00;;
31906;SDS011;18455;50.858;13.662;2023-02-21T09:12:21;10.53;;;6.73;;
31906;SDS011;18455;50.858;13.662;2023-02-21T09:17:21;10.77;;;7.03;;
31906;SDS011;18455;50.858;13.662;2023-02-21T09:22:21;11.07;;;7.03;;
31906;SDS011;18455;50.858;13.662;2023-02-21T09:27:22;9.03;;;6.37;;
31906;SDS011;18455;50.858;13.662;2023-02-21T09:32:35;11.73;;;6.30;;
31906;SDS011;18455;50.858;13.662;2023-02-21T09:37:36;8.40;;;6.10;;
31906;SDS011;18455;50.858;13.662;2023-02-21T09:42:38;12.00;;;6.43;;
31906;SDS011;18455;50.858;13.662;2023-02-21T09:47:40;13.47;;;6.23;;
31906;SDS011;18455;50.858;13.662;2023-02-21T09:52:40;9.30;;;6.23;;
31906;SDS011;18455;50.858;13.662;2023-02-21T09:57:41;9.87;;;6.73;;
31906;SDS011;18455;50.858;13.662;2023-02-21T10:02:46;8.23;;;6.07;;
31906;SDS011;18455;50.858;13.662;2023-02-21T10:13:45;7.70;;;5.07;;
31906;SDS011;18455;50.858;13.662;2023-02-21T10:24:21;7.37;;;5.67;;
31906;SDS011;18455;50.858;13.662;2023-02-21T10:29:24;7.60;;;4.90;;
31906;SDS011;18455;50.858;13.662;2023-02-21T10:34:26;8.43;;;5.13;;
31906;SDS011;18455;50.858;13.662;2023-02-21T10:39:35;7.53;;;4.87;;
31906;SDS011;18455;50.858;13.662;2023-02-21T10:44:40;8.57;;;4.67;;
31906;SDS011;18455;50.858;13.662;2023-02-21T11:00:03;7.57;;;5.03;;
31906;SDS011;18455;50.858;13.662;2023-02-21T11:05:18;7.47;;;5.40;;
31906;SDS011;18455;50.858;13.662;2023-02-21T11:15:27;7.83;;;5.07;;
31906;SDS011;18455;50.858;13.662;2023-02-21T11:20:28;9.93;;;4.90;;
31906;SDS011;18455;50.858;13.662;2023-02-21T11:25:30;8.27;;;5.20;;
31906;SDS011;18455;50.858;13.662;2023-02-21T11:30:33;7.17;;;4.87;;
31906;SDS011;18455;50.858;13.662;2023-02-21T11:35:43;7.10;;;4.27;;
31906;SDS011;18455;50.858;13.662;2023-02-21T11:40:49;8.37;;;4.77;;
31906;SDS011;18455;50.858;13.662;2023-02-21T11:45:54;6.53;;;5.47;;
31906;SDS011;18455;50.858;13.662;2023-02-21T11:51:00;6.60;;;4.40;;
31906;SDS011;18455;50.858;13.662;2023-02-21T11:56:27;5.77;;;4.27;;
31906;SDS011;18455;50.858;13.662;2023-02-21T12:01:34;8.07;;;5.07;;
31906;SDS011;18455;50.858;13.662;2023-02-21T12:06:40;9.50;;;4.90;;
31906;SDS011;18455;50.858;13.662;2023-02-21T12:17:11;8.93;;;4.57;;
31906;SDS011;18455;50.858;13.662;2023-02-21T12:22:54;9.50;;;5.30;;
31906;SDS011;18455;50.858;13.662;2023-02-21T12:38:38;5.23;;;3.90;;
31906;SDS011;18455;50.858;13.662;2023-02-21T12:43:50;6.43;;;4.70;;
31906;SDS011;18455;50.858;13.662;2023-02-21T12:49:04;7.13;;;5.10;;
31906;SDS011;18455;50.858;13.662;2023-02-21T12:54:15;7.33;;;4.83;;
31906;SDS011;18455;50.858;13.662;2023-02-21T12:59:21;7.80;;;5.50;;
31906;SDS011;18455;50.858;13.662;2023-02-21T13:09:47;7.97;;;5.03;;
31906;SDS011;18455;50.858;13.662;2023-02-21T13:14:58;8.07;;;5.70;;
31906;SDS011;18455;50.858;13.662;2023-02-21T13:20:08;9.93;;;5.23;;
31906;SDS011;18455;50.858;13.662;2023-02-21T13:30:18;7.33;;;4.70;;
31906;SDS011;18455;50.858;13.662;2023-02-21T13:35:30;9.60;;;5.00;;
31906;SDS011;18455;50.858;13.662;2023-02-21T13:40:47;9.50;;;5.10;;
31906;SDS011;18455;50.858;13.662;2023-02-21T13:45:51;6.63;;;4.80;;
31906;SDS011;18455;50.858;13.662;2023-02-21T13:50:55;8.20;;;4.17;;
31906;SDS011;18455;50.858;13.662;2023-02-21T14:06:29;7.78;;;3.88;;
31906;SDS011;18455;50.858;13.662;2023-02-21T14:11:34;6.90;;;4.60;;
31906;SDS011;18455;50.858;13.662;2023-02-21T14:22:11;7.83;;;5.20;;
31906;SDS011;18455;50.858;13.662;2023-02-21T14:32:14;6.93;;;4.53;;
31906;SDS011;18455;50.858;13.662;2023-02-21T14:37:25;8.50;;;5.80;;
31906;SDS011;18455;50.858;13.662;2023-02-21T14:42:36;8.40;;;6.07;;
31906;SDS011;18455;50.858;13.662;2023-02-21T15:09:32;10.90;;;6.47;;
31906;SDS011;18455;50.858;13.662;2023-02-21T15:14:35;9.97;;;5.70;;
31906;SDS011;18455;50.858;13.662;2023-02-21T15:19:39;10.03;;;5.70;;
31906;SDS011;18455;50.858;13.662;2023-02-21T15:24:39;7.60;;;5.73;;
31906;SDS011;18455;50.858;13.662;2023-02-21T15:29:40;7.37;;;5.07;;
31906;SDS011;18455;50.858;13.662;2023-02-21T15:34:41;8.43;;;5.37;;
31906;SDS011;18455;50.858;13.662;2023-02-21T15:39:43;8.37;;;5.17;;
31906;SDS011;18455;50.858;13.662;2023-02-21T15:44:50;8.60;;;5.53;;
31906;SDS011;18455;50.858;13.662;2023-02-21T15:49:59;7.97;;;5.33;;
31906;SDS011;18455;50.858;13.662;2023-02-21T16:00:32;7.60;;;5.20;;
31906;SDS011;18455;50.858;13.662;2023-02-21T16:05:34;8.47;;;5.80;;
31906;SDS011;18455;50.858;13.662;2023-02-21T16:10:35;7.40;;;5.40;;
31906;SDS011;18455;50.858;13.662;2023-02-21T16:15:35;6.70;;;4.97;;
31906;SDS011;18455;50.858;13.662;2023-02-21T16:20:40;8.67;;;5.30;;
31906;SDS011;18455;50.858;13.662;2023-02-21T16:31:01;9.50;;;6.17;;
31906;SDS011;18455;50.858;13.662;2023-02-21T16:36:07;10.17;;;5.67;;
31906;SDS011;18455;50.858;13.662;2023-02-21T16:41:15;9.20;;;6.10;;
31906;SDS011;18455;50.858;13.662;2023-02-21T16:46:20;9.00;;;5.73;;
31906;SDS011;18455;50.858;13.662;2023-02-21T16:51:23;9.97;;;5.83;;
31906;SDS011;18455;50.858;13.662;2023-02-21T16:56:23;9.50;;;7.17;;
31906;SDS011;18455;50.858;13.662;2023-02-21T17:01:27;11.67;;;6.30;;
31906;SDS011;18455;50.858;13.662;2023-02-21T17:06:28;12.37;;;6.83;;
31906;SDS011;18455;50.858;13.662;2023-02-21T17:11:28;9.33;;;6.37;;
31906;SDS011;18455;50.858;13.662;2023-02-21T17:16:29;10.53;;;7.17;;
31906;SDS011;18455;50.858;13.662;2023-02-21T17:21:30;8.37;;;6.00;;
31906;SDS011;18455;50.858;13.662;2023-02-21T17:26:30;13.93;;;6.63;;
31906;SDS011;18455;50.858;13.662;2023-02-21T17:31:31;9.67;;;6.30;;
31906;SDS011;18455;50.858;13.662;2023-02-21T17:36:31;10.30;;;6.00;;
31906;SDS011;18455;50.858;13.662;2023-02-21T17:41:31;12.50;;;7.17;;
31906;SDS011;18455;50.858;13.662;2023-02-21T17:46:32;9.20;;;6.37;;
31906;SDS011;18455;50.858;13.662;2023-02-21T17:51:32;10.80;;;6.23;;
31906;SDS011;18455;50.858;13.662;2023-02-21T17:56:33;8.43;;;6.23;;
31906;SDS011;18455;50.858;13.662;2023-02-21T18:01:33;12.20;;;7.57;;
31906;SDS011;18455;50.858;13.662;2023-02-21T18:06:33;12.13;;;6.43;;
31906;SDS011;18455;50.858;13.662;2023-02-21T18:11:34;13.50;;;6.83;;
31906;SDS011;18455;50.858;13.662;2023-02-21T18:16:34;20.23;;;14.70;;
31906;SDS011;18455;50.858;13.662;2023-02-21T18:21:35;15.53;;;10.13;;
31906;SDS011;18455;50.858;13.662;2023-02-21T18:26:40;14.67;;;8.77;;
31906;SDS011;18455;50.858;13.662;2023-02-21T18:31:40;10.80;;;7.37;;
31906;SDS011;18455;50.858;13.662;2023-02-21T18:36:46;14.47;;;8.20;;
31906;SDS011;18455;50.858;13.662;2023-02-21T18:41:47;12.87;;;7.70;;
31906;SDS011;18455;50.858;13.662;2023-02-21T18:46:52;14.43;;;8.90;;
31906;SDS011;18455;50.858;13.662;2023-02-21T18:51:54;17.83;;;9.13;;
31906;SDS011;18455;50.858;13.662;2023-02-21T18:56:54;12.33;;;7.90;;
31906;SDS011;18455;50.858;13.662;2023-02-21T19:01:54;13.30;;;7.67;;
31906;SDS011;18455;50.858;13.662;2023-02-21T19:06:55;12.03;;;8.10;;
31906;SDS011;18455;50.858;13.662;2023-02-21T19:11:55;15.70;;;8.43;;
31906;SDS011;18455;50.858;13.662;2023-02-21T19:16:56;13.40;;;8.47;;
31906;SDS011;18455;50.858;13.662;2023-02-21T19:21:57;11.53;;;7.37;;
31906;SDS011;18455;50.858;13.662;2023-02-21T19:26:58;9.37;;;7.00;;
31906;SDS011;18455;50.858;13.662;2023-02-21T19:31:58;13.20;;;7.30;;
31906;SDS011;18455;50.858;13.662;2023-02-21T19:36:59;12.57;;;7.53;;
31906;SDS011;18455;50.858;13.662;2023-02-21T19:41:59;12.13;;;7.73;;
31906;SDS011;18455;50.858;13.662;2023-02-21T19:46:59;11.63;;;7.17;;
31906;SDS011;18455;50.858;13.662;2023-02-21T19:52:00;9.07;;;6.30;;
31906;SDS011;18455;50.858;13.662;2023-02-21T19:57:00;13.03;;;7.10;;
31906;SDS011;18455;50.858;13.662;2023-02-21T20:02:01;10.33;;;6.43;;
31906;SDS011;18455;50.858;13.662;2023-02-21T20:07:02;10.53;;;6.30;;
31906;SDS011;18455;50.858;13.662;2023-02-21T20:12:04;10.03;;;6.33;;
31906;SDS011;18455;50.858;13.662;2023-02-21T20:17:04;11.60;;;7.03;;
31906;SDS011;18455;50.858;13.662;2023-02-21T20:22:04;12.07;;;7.27;;
31906;SDS011;18455;50.858;13.662;2023-02-21T20:27:05;12.47;;;7.20;;
31906;SDS011;18455;50.858;13.662;2023-02-21T20:32:05;10.90;;;7.13;;
31906;SDS011;18455;50.858;13.662;2023-02-21T20:37:06;11.70;;;6.43;;
31906;SDS011;18455;50.858;13.662;2023-02-21T20:42:09;9.77;;;6.50;;
31906;SDS011;18455;50.858;13.662;2023-02-21T20:47:10;10.93;;;6.90;;
31906;SDS011;18455;50.858;13.662;2023-02-21T20:52:10;11.70;;;6.73;;
31906;SDS011;18455;50.858;13.662;2023-02-21T20:57:11;11.77;;;7.07;;
31906;SDS011;18455;50.858;13.662;2023-02-21T21:02:12;10.33;;;6.43;;
31906;SDS011;18455;50.858;13.662;2023-02-21T21:07:14;8.73;;;6.27;;
31906;SDS011;18455;50.858;13.662;2023-02-21T21:12:20;10.07;;;5.93;;
31906;SDS011;18455;50.858;13.662;2023-02-21T21:17:21;14.50;;;7.00;;
31906;SDS011;18455;50.858;13.662;2023-02-21T21:22:23;10.67;;;7.00;;
31906;SDS011;18455;50.858;13.662;2023-02-21T21:27:24;12.63;;;6.67;;
31906;SDS011;18455;50.858;13.662;2023-02-21T21:32:25;10.77;;;6.97;;
31906;SDS011;18455;50.858;13.662;2023-02-21T21:37:26;11.43;;;6.67;;
31906;SDS011;18455;50.858;13.662;2023-02-21T21:42:28;8.27;;;6.27;;
31906;SDS011;18455;50.858;13.662;2023-02-21T21:47:29;9.77;;;6.37;;
31906;SDS011;18455;50.858;13.662;2023-02-21T21:52:35;11.13;;;6.13;;
31906;SDS011;18455;50.858;13.662;2023-02-21T21:57:35;7.93;;;5.40;;
31906;SDS011;18455;50.858;13.662;2023-02-21T22:02:35;12.23;;;5.80;;
31906;SDS011;18455;50.858;13.662;2023-02-21T22:07:36;9.27;;;6.10;;
31906;SDS011;18455;50.858;13.662;2023-02-21T22:12:37;11.93;;;6.93;;
31906;SDS011;18455;50.858;13.662;2023-02-21T22:17:38;11.53;;;7.00;;
31906;SDS011;18455;50.858;13.662;2023-02-21T22:22:39;12.40;;;7.03;;
31906;SDS011;18455;50.858;13.662;2023-02-21T22:27:39;10.33;;;6.70;;
31906;SDS011;18455;50.858;13.662;2023-02-21T22:32:41;10.33;;;6.97;;
31906;SDS011;18455;50.858;13.662;2023-02-21T22:37:42;12.20;;;7.10;;
31906;SDS011;18455;50.858;13.662;2023-02-21T22:42:53;14.40;;;7.83;;
31906;SDS011;18455;50.858;13.662;2023-02-21T22:47:54;12.40;;;7.37;;
31906;SDS011;18455;50.858;13.662;2023-02-21T22:52:57;10.17;;;6.97;;
31906;SDS011;18455;50.858;13.662;2023-02-21T22:58:00;14.53;;;7.87;;
31906;SDS011;18455;50.858;13.662;2023-02-21T23:03:02;11.90;;;7.70;;
31906;SDS011;18455;50.858;13.662;2023-02-21T23:08:14;11.17;;;7.10;;
31906;SDS011;18455;50.858;13.662;2023-02-21T23:13:17;11.20;;;7.77;;
31906;SDS011;18455;50.858;13.662;2023-02-21T23:18:19;12.83;;;8.00;;
31906;SDS011;18455;50.858;13.662;2023-02-21T23:23:20;14.87;;;7.83;;
31906;SDS011;18455;50.858;13.662;2023-02-21T23:28:21;14.23;;;8.50;;
31906;SDS011;18455;50.858;13.662;2023-02-21T23:33:22;14.13;;;8.00;;
31906;SDS011;18455;50.858;13.662;2023-02-21T23:38:25;13.40;;;7.53;;
31906;SDS011;18455;50.858;13.662;2023-02-21T23:43:29;13.27;;;7.57;;
31906;SDS011;18455;50.858;13.662;2023-02-21T23:48:34;12.73;;;7.50;;
31906;SDS011;18455;50.858;13.662;2023-02-21T23:53:36;14.37;;;8.97;;
31906;SDS011;18455;50.858;13.662;2023-02-21T23:58:37;16.10;;;7.90;;
